Portada
METAR-TAF:

METAR-TAF

Aeropuertos :

Aeropuerto de Yakutsk

Yakutsk, Rusia

latitud: 62-01N, longitud: 129-43E, altitud: 103 m

Observación

El informe se hizo hace 15 minutos, a las 23:30 UTC
Viento 4 kt del este-sureste
Temperatura 4°C
Humedad 81%
Presión 1018 hPa
Visibilidad 10 km o más
sin nubes por debajo de 1500 m y sin presencia de cumulonimbus.

METAR: UEEE 212330Z 12002MPS CAVOK 04/01 Q1018 R23L/09//64 NOSIG RMK QFE755

Hora: 08:45 (23:45 UTC)

Pronóstico

El informe se hizo hace 45 minutos, a las 23:00 UTC
Pronóstico válido del 22 a las 00 UTC al 23 a las 06 UTC
Viento 10 kt del este-sureste con ráfagas de 19 kt
Visibilidad 10 km o más
sin nubes por debajo de 1500 m y sin presencia de cumulonimbus.

TAF: UEEE 212300Z 2200/2306 12005G10MPS CAVOK

Observaciones y pronósticos meteorológicos de más de 4000 aeropuertos (mensajes METAR y TAF).

Los puntos amarillos y rojos representan las estaciones disponibles.

Ponga el ratón en el punto deseado para ver el nombre de la estación.

Haga clic para ver las observaciones y los pronósticos meteorológicos.

Para cambiar el mapa : haga clic en los botones verdes con una cruz de color negro para hacer un zoom, en el botón verde con un guión para alejar o en las flechas verdes para mapas adyacentes.


METAR-TAF: